createdAt,value
2019-05-19T00:01:57.105Z,13.58
2019-05-19T00:04:31.051Z,13.51
2019-05-19T00:07:02.729Z,13.45
2019-05-19T00:09:34.700Z,13.38
2019-05-19T00:12:06.422Z,13.38
2019-05-19T00:14:38.200Z,13.36
2019-05-19T00:17:09.949Z,13.33
2019-05-19T00:19:41.666Z,13.31
2019-05-19T00:22:13.166Z,13.50
2019-05-19T00:24:43.876Z,13.54
2019-05-19T00:27:15.374Z,13.52
2019-05-19T00:29:47.044Z,13.55
2019-05-19T00:32:18.711Z,13.53
2019-05-19T00:34:50.433Z,13.48
2019-05-19T00:37:22.061Z,13.46
2019-05-19T00:39:53.638Z,13.52
2019-05-19T00:42:25.501Z,13.52
2019-05-19T00:44:57.262Z,13.51
2019-05-19T00:47:29.095Z,13.55
2019-05-19T00:50:00.719Z,13.53
2019-05-19T00:52:32.527Z,13.52
2019-05-19T00:55:04.433Z,13.52
2019-05-19T00:57:36.622Z,13.56
2019-05-19T01:00:09.059Z,13.62
2019-05-19T01:02:41.096Z,13.59
2019-05-19T01:05:12.867Z,13.58
2019-05-19T01:07:44.507Z,13.56
2019-05-19T01:10:16.372Z,13.57
2019-05-19T01:12:48.118Z,13.56
2019-05-19T01:15:20.667Z,13.59
2019-05-19T01:17:52.257Z,13.61
2019-05-19T01:20:23.917Z,13.64
2019-05-19T01:22:55.681Z,13.64
2019-05-19T01:25:27.253Z,13.66
2019-05-19T01:27:59.171Z,13.60
2019-05-19T01:30:30.889Z,13.57
2019-05-19T01:33:02.496Z,13.48
2019-05-19T01:35:34.546Z,13.41
2019-05-19T01:38:06.260Z,13.33
2019-05-19T01:40:37.871Z,13.25
2019-05-19T01:43:09.532Z,13.18
2019-05-19T01:45:41.282Z,13.11
2019-05-19T01:48:12.948Z,13.05
2019-05-19T01:50:44.525Z,12.99
2019-05-19T01:53:16.046Z,12.95
2019-05-19T01:55:47.701Z,12.89
2019-05-19T01:58:19.388Z,12.84
2019-05-19T02:00:51.007Z,12.79
2019-05-19T02:03:22.681Z,12.79
2019-05-19T02:05:54.369Z,12.74
2019-05-19T02:08:26.088Z,12.70
2019-05-19T02:10:58.003Z,12.70
2019-05-19T02:13:29.593Z,12.70
2019-05-19T02:16:01.377Z,12.70
2019-05-19T02:18:33.224Z,12.72
2019-05-19T02:21:04.773Z,12.73
2019-05-19T02:23:38.261Z,12.76
2019-05-19T02:26:10.175Z,12.77
2019-05-19T02:28:41.870Z,12.76
2019-05-19T02:31:13.599Z,12.79
2019-05-19T02:33:45.714Z,12.82
2019-05-19T02:36:17.597Z,12.85
2019-05-19T02:38:50.458Z,12.84
2019-05-19T02:41:24.751Z,12.90
2019-05-19T02:43:58.734Z,12.91
2019-05-19T02:46:31.756Z,12.96
2019-05-19T02:49:04.980Z,12.97
2019-05-19T02:51:38.274Z,13.01
2019-05-19T02:54:11.888Z,13.05
2019-05-19T02:56:44.154Z,13.10
2019-05-19T02:59:16.800Z,13.15
2019-05-19T03:02:06.256Z,13.17
2019-05-19T03:04:38.068Z,13.21
2019-05-19T03:07:09.612Z,13.25
2019-05-19T03:09:41.266Z,13.27
2019-05-19T03:12:13.002Z,13.30
2019-05-19T03:14:44.801Z,13.33
2019-05-19T03:17:18.550Z,13.39
2019-05-19T03:19:50.036Z,13.41
2019-05-19T03:22:20.459Z,13.46
2019-05-19T03:24:51.810Z,13.47
2019-05-19T03:27:23.578Z,13.51
2019-05-19T03:29:58.248Z,13.54
2019-05-19T03:32:43.912Z,13.56
2019-05-19T03:35:15.660Z,13.62
2019-05-19T03:37:47.324Z,13.66
2019-05-19T03:40:21.975Z,13.67
2019-05-19T03:42:53.880Z,13.69
2019-05-19T03:45:25.452Z,13.73
2019-05-19T03:47:57.599Z,13.76
2019-05-19T03:50:30.175Z,13.80
2019-05-19T03:53:01.840Z,13.83
2019-05-19T03:55:33.495Z,13.87
2019-05-19T03:58:05.138Z,13.89
2019-05-19T04:00:36.698Z,13.91
2019-05-19T04:03:08.363Z,13.94
2019-05-19T04:05:40.550Z,13.99
2019-05-19T04:08:12.072Z,14.02
2019-05-19T04:10:42.597Z,14.06
2019-05-19T04:13:14.111Z,14.06
2019-05-19T04:15:45.636Z,14.08
2019-05-19T04:18:17.362Z,14.14
2019-05-19T04:20:49.153Z,14.19
2019-05-19T04:23:20.774Z,14.27
2019-05-19T04:25:52.361Z,14.29
2019-05-19T04:28:24.074Z,14.33
2019-05-19T04:30:55.752Z,14.40
2019-05-19T04:33:27.389Z,14.45
2019-05-19T04:35:59.161Z,14.49
2019-05-19T04:38:30.883Z,14.49
2019-05-19T04:41:02.406Z,14.55
2019-05-19T04:43:32.868Z,14.62
2019-05-19T04:46:04.303Z,14.67
2019-05-19T04:48:35.992Z,14.75
2019-05-19T04:51:08.017Z,14.78
2019-05-19T04:53:42.117Z,14.88
2019-05-19T04:56:13.944Z,14.85
2019-05-19T04:58:45.733Z,14.86
2019-05-19T05:01:17.389Z,14.95
2019-05-19T05:03:48.902Z,14.98
2019-05-19T05:06:20.899Z,15.01
2019-05-19T05:08:52.742Z,15.09
2019-05-19T05:11:24.390Z,15.08
2019-05-19T05:13:56.053Z,15.04
2019-05-19T05:16:27.837Z,15.13
2019-05-19T05:18:59.357Z,15.21
2019-05-19T05:21:31.012Z,15.09
2019-05-19T05:24:02.661Z,15.12
2019-05-19T05:26:34.325Z,15.24
2019-05-19T05:29:05.975Z,15.35
2019-05-19T05:31:37.769Z,15.46
2019-05-19T05:34:09.481Z,15.52
2019-05-19T05:36:41.248Z,15.43
2019-05-19T05:39:13.094Z,15.42
2019-05-19T05:41:44.714Z,15.45
2019-05-19T05:44:16.261Z,15.47
2019-05-19T05:46:47.834Z,15.54
2019-05-19T05:49:19.536Z,15.53
2019-05-19T05:51:52.008Z,15.63
2019-05-19T05:54:23.740Z,15.56
2019-05-19T05:56:55.570Z,15.73
2019-05-19T05:59:27.179Z,15.81
2019-05-19T06:01:58.732Z,15.67
2019-05-19T06:04:30.389Z,15.76
2019-05-19T06:07:02.152Z,15.78
2019-05-19T06:09:33.898Z,15.86
2019-05-19T06:12:05.706Z,15.99
2019-05-19T06:14:37.448Z,15.82
2019-05-19T06:17:09.280Z,16.05
2019-05-19T06:19:40.938Z,16.05
2019-05-19T06:22:12.790Z,15.94
2019-05-19T06:24:44.616Z,16.11
2019-05-19T06:27:16.380Z,16.14
2019-05-19T06:29:48.179Z,16.15
2019-05-19T06:32:26.948Z,16.19
2019-05-19T06:34:58.654Z,16.30
2019-05-19T06:37:30.492Z,16.41
2019-05-19T06:40:02.076Z,16.40
2019-05-19T06:42:33.652Z,16.42
2019-05-19T06:45:05.654Z,16.43
2019-05-19T06:47:37.574Z,16.52
2019-05-19T06:50:10.626Z,16.61
2019-05-19T06:52:42.427Z,16.80
2019-05-19T06:55:14.650Z,16.71
2019-05-19T06:57:46.275Z,16.53
2019-05-19T07:00:18.788Z,16.52
2019-05-19T07:02:50.376Z,16.49
2019-05-19T07:05:21.911Z,16.55
2019-05-19T07:07:53.689Z,16.68
2019-05-19T07:10:25.540Z,16.74
2019-05-19T07:12:57.186Z,16.71
2019-05-19T07:15:29.042Z,16.86
2019-05-19T07:18:00.701Z,17.07
2019-05-19T07:20:32.468Z,17.20
2019-05-19T07:23:04.151Z,17.39
2019-05-19T07:25:35.997Z,17.19
2019-05-19T07:28:07.679Z,17.40
2019-05-19T07:30:39.308Z,17.53
2019-05-19T07:33:11.882Z,17.54
2019-05-19T07:35:44.886Z,17.48
2019-05-19T07:38:16.465Z,17.45
2019-05-19T07:40:48.170Z,17.68
2019-05-19T07:43:19.799Z,17.79
2019-05-19T07:45:51.643Z,17.94
2019-05-19T07:48:23.071Z,17.88
2019-05-19T07:50:53.630Z,17.79
2019-05-19T07:53:25.053Z,17.83
2019-05-19T07:55:56.646Z,17.89
2019-05-19T07:58:28.444Z,18.09
2019-05-19T08:01:00.083Z,18.17
2019-05-19T08:03:34.017Z,18.32
2019-05-19T08:06:06.689Z,18.46
2019-05-19T08:08:38.389Z,18.63
2019-05-19T08:11:09.979Z,18.45
2019-05-19T08:13:41.855Z,18.47
2019-05-19T08:16:13.554Z,18.47
2019-05-19T08:18:47.339Z,18.52
2019-05-19T08:21:18.943Z,18.80
2019-05-19T08:23:59.972Z,18.93
2019-05-19T08:26:23.888Z,18.72
2019-05-19T08:28:55.495Z,18.77
2019-05-19T08:31:27.538Z,19.02
2019-05-19T08:34:00.027Z,18.84
2019-05-19T08:36:31.661Z,18.97
2019-05-19T08:39:05.247Z,19.10
2019-05-19T08:41:37.114Z,19.32
2019-05-19T08:44:08.894Z,19.62
2019-05-19T08:46:40.639Z,19.40
2019-05-19T08:49:12.106Z,19.93
2019-05-19T08:51:42.633Z,20.27
2019-05-19T08:54:18.332Z,21.05
2019-05-19T08:56:47.444Z,21.30
2019-05-19T08:59:19.047Z,21.72
2019-05-19T09:01:50.667Z,21.29
2019-05-19T09:04:22.469Z,21.37
2019-05-19T09:06:54.185Z,21.55
2019-05-19T09:09:25.896Z,20.76
2019-05-19T09:11:57.597Z,20.79
2019-05-19T09:14:29.533Z,21.58
2019-05-19T09:17:01.240Z,22.27
2019-05-19T09:19:33.204Z,25.28
2019-05-19T09:22:04.998Z,27.56
2019-05-19T09:24:37.345Z,30.89
2019-05-19T09:27:09.219Z,32.58
2019-05-19T09:29:41.748Z,32.48
2019-05-19T09:32:13.425Z,32.48
2019-05-19T09:34:45.314Z,32.79
2019-05-19T09:37:17.026Z,33.52
2019-05-19T09:39:48.629Z,36.33
2019-05-19T09:42:20.439Z,37.19
2019-05-19T09:44:52.232Z,38.84
2019-05-19T09:47:23.863Z,37.29
2019-05-19T09:49:55.679Z,37.96
2019-05-19T09:52:27.282Z,37.00
2019-05-19T09:54:59.040Z,36.16
2019-05-19T09:57:30.772Z,35.49
2019-05-19T10:00:02.567Z,35.78
2019-05-19T10:02:34.308Z,36.62
2019-05-19T10:05:06.812Z,38.85
2019-05-19T10:07:38.642Z,35.90
2019-05-19T10:10:18.183Z,35.76
2019-05-19T10:12:49.980Z,34.70
2019-05-19T10:15:21.719Z,36.05
2019-05-19T10:17:53.502Z,36.21
2019-05-19T10:20:25.238Z,36.85
2019-05-19T10:22:56.963Z,34.81
2019-05-19T10:25:28.724Z,39.20
2019-05-19T10:28:02.527Z,38.07
2019-05-19T10:30:34.086Z,37.56
2019-05-19T10:33:08.520Z,38.22
2019-05-19T10:35:40.266Z,35.54
2019-05-19T10:38:12.039Z,35.84
2019-05-19T10:40:43.843Z,38.99
2019-05-19T10:43:15.643Z,39.02
2019-05-19T10:45:59.793Z,39.58
2019-05-19T10:48:31.652Z,38.99
2019-05-19T10:51:03.231Z,39.13
2019-05-19T10:53:34.770Z,33.60
2019-05-19T10:56:06.339Z,33.75
2019-05-19T10:58:38.001Z,35.58
2019-05-19T11:01:09.743Z,39.20
2019-05-19T11:03:41.408Z,36.77
2019-05-19T11:06:13.206Z,37.79
2019-05-19T11:08:44.923Z,38.49
2019-05-19T11:11:16.740Z,39.25
2019-05-19T11:13:48.632Z,39.24
2019-05-19T11:16:20.306Z,33.52
2019-05-19T11:18:52.047Z,35.98
2019-05-19T11:21:23.734Z,38.96
2019-05-19T11:23:55.562Z,34.22
2019-05-19T11:26:27.401Z,31.92
2019-05-19T11:29:00.474Z,33.61
2019-05-19T11:31:32.088Z,33.45
2019-05-19T11:34:03.815Z,34.11
2019-05-19T11:36:35.573Z,36.28
2019-05-19T11:39:09.220Z,36.89
2019-05-19T11:41:40.921Z,36.02
2019-05-19T11:44:12.872Z,38.10
2019-05-19T11:46:44.458Z,39.88
2019-05-19T11:49:16.312Z,38.98
2019-05-19T11:51:48.567Z,38.55
2019-05-19T11:54:20.325Z,39.02
2019-05-19T11:56:52.011Z,38.17
2019-05-19T11:59:23.536Z,39.53
2019-05-19T12:01:55.234Z,39.91
2019-05-19T12:04:26.975Z,36.87
2019-05-19T12:06:58.852Z,36.78
2019-05-19T12:09:30.369Z,32.90
2019-05-19T12:12:02.157Z,35.07
2019-05-19T12:14:33.787Z,36.87
2019-05-19T12:17:05.756Z,35.66
2019-05-19T12:19:37.658Z,35.77
2019-05-19T12:22:09.286Z,33.91
2019-05-19T12:24:40.918Z,36.45
2019-05-19T12:27:12.492Z,38.46
2019-05-19T12:29:44.224Z,34.22
2019-05-19T12:32:16.142Z,38.11
2019-05-19T12:34:48.098Z,37.81
2019-05-19T12:37:19.783Z,37.45
2019-05-19T12:39:51.434Z,37.69
2019-05-19T12:42:23.201Z,38.23
2019-05-19T12:44:54.759Z,34.26
2019-05-19T12:47:26.449Z,34.78
2019-05-19T12:49:58.145Z,36.62
2019-05-19T12:52:30.221Z,36.90
2019-05-19T12:55:01.864Z,37.20
2019-05-19T12:57:33.666Z,37.44
2019-05-19T13:00:05.557Z,36.70
2019-05-19T13:02:38.205Z,36.87
2019-05-19T13:05:10.211Z,36.51
2019-05-19T13:07:41.870Z,34.34
2019-05-19T13:10:13.805Z,29.97
2019-05-19T13:12:45.475Z,29.86
2019-05-19T13:15:17.416Z,29.67
2019-05-19T13:17:49.204Z,30.50
2019-05-19T13:20:21.461Z,30.55
2019-05-19T13:22:53.233Z,31.93
2019-05-19T13:25:24.979Z,32.17
2019-05-19T13:27:56.563Z,32.39
2019-05-19T13:30:28.064Z,33.36
2019-05-19T13:32:59.923Z,34.23
2019-05-19T13:35:31.687Z,33.18
2019-05-19T13:38:03.355Z,32.61
2019-05-19T13:40:34.914Z,32.47
2019-05-19T13:43:06.673Z,32.85
2019-05-19T13:45:38.346Z,32.81
2019-05-19T13:48:10.005Z,33.42
2019-05-19T13:50:41.641Z,33.67
2019-05-19T13:53:13.302Z,32.04
2019-05-19T13:55:44.953Z,32.14
2019-05-19T13:58:16.618Z,33.40
2019-05-19T14:00:48.358Z,31.78
2019-05-19T14:03:19.977Z,31.56
2019-05-19T14:05:51.795Z,32.93
2019-05-19T14:08:23.470Z,33.53
2019-05-19T14:10:55.168Z,34.37
2019-05-19T14:13:26.851Z,34.51
2019-05-19T14:15:58.707Z,32.79
2019-05-19T14:18:30.279Z,32.67
2019-05-19T14:21:02.155Z,31.69
2019-05-19T14:23:33.904Z,31.73
2019-05-19T14:26:05.803Z,30.50
2019-05-19T14:28:39.409Z,29.53
2019-05-19T14:31:11.221Z,29.25
2019-05-19T14:33:43.067Z,30.56
2019-05-19T14:36:15.707Z,31.11
2019-05-19T14:39:05.756Z,32.35
2019-05-19T14:41:40.746Z,32.57
2019-05-19T14:44:12.544Z,31.78
2019-05-19T14:46:44.273Z,31.83
2019-05-19T14:49:18.579Z,30.91
2019-05-19T14:51:50.353Z,30.95
2019-05-19T14:54:22.047Z,31.23
2019-05-19T14:56:53.760Z,31.06
2019-05-19T14:59:25.437Z,31.44
2019-05-19T15:01:56.986Z,31.67
2019-05-19T15:04:28.662Z,31.38
2019-05-19T15:07:00.441Z,31.36
2019-05-19T15:09:32.169Z,31.27
2019-05-19T15:12:03.943Z,31.02
2019-05-19T15:14:35.616Z,31.47
2019-05-19T15:17:07.000Z,31.33
2019-05-19T15:19:38.702Z,31.04
2019-05-19T15:22:10.329Z,31.22
2019-05-19T15:24:42.028Z,31.18
2019-05-19T15:27:13.520Z,30.18
2019-05-19T15:29:45.114Z,30.05
2019-05-19T15:32:16.865Z,30.93
2019-05-19T15:34:48.424Z,30.08
2019-05-19T15:37:20.063Z,30.34
2019-05-19T15:39:51.711Z,30.79
2019-05-19T15:42:23.469Z,29.88
2019-05-19T15:44:55.453Z,29.18
2019-05-19T15:47:27.734Z,30.55
2019-05-19T15:49:59.879Z,31.06
2019-05-19T15:52:31.563Z,30.22
2019-05-19T15:55:03.310Z,29.51
2019-05-19T15:57:35.373Z,29.50
2019-05-19T16:00:08.123Z,28.12
2019-05-19T16:02:40.119Z,27.57
2019-05-19T16:05:11.988Z,26.88
2019-05-19T16:07:43.563Z,26.76
2019-05-19T16:10:15.905Z,27.68
2019-05-19T16:12:47.500Z,26.96
2019-05-19T16:15:19.616Z,28.04
2019-05-19T16:17:51.156Z,27.39
2019-05-19T16:20:22.719Z,28.45
2019-05-19T16:22:54.289Z,28.33
2019-05-19T16:25:25.882Z,27.64
2019-05-19T16:27:57.808Z,27.39
2019-05-19T16:30:29.479Z,26.95
2019-05-19T16:33:01.385Z,27.04
2019-05-19T16:35:33.177Z,26.12
2019-05-19T16:38:04.972Z,25.28
2019-05-19T16:40:36.592Z,24.91
2019-05-19T16:43:08.246Z,24.16
2019-05-19T16:45:40.020Z,23.79
2019-05-19T16:48:11.626Z,23.27
2019-05-19T16:50:43.221Z,22.94
2019-05-19T16:53:14.957Z,22.67
2019-05-19T16:55:46.525Z,22.76
2019-05-19T16:58:21.494Z,22.82
2019-05-19T17:00:51.516Z,22.71
2019-05-19T17:03:23.651Z,22.55
2019-05-19T17:05:55.785Z,22.50
2019-05-19T17:08:27.768Z,22.50
2019-05-19T17:10:59.442Z,22.08
2019-05-19T17:13:31.161Z,21.84
2019-05-19T17:16:02.876Z,21.75
2019-05-19T17:18:34.496Z,21.53
2019-05-19T17:21:07.035Z,21.40
2019-05-19T17:23:38.931Z,21.37
2019-05-19T17:26:10.595Z,21.19
2019-05-19T17:28:42.356Z,21.11
2019-05-19T17:31:14.040Z,21.14
2019-05-19T17:33:45.848Z,21.02
2019-05-19T17:36:18.111Z,20.88
2019-05-19T17:38:49.774Z,20.88
2019-05-19T17:41:21.471Z,20.74
2019-05-19T17:43:53.096Z,20.63
2019-05-19T17:46:25.687Z,20.48
2019-05-19T17:48:57.342Z,20.43
2019-05-19T17:51:29.604Z,20.29
2019-05-19T17:54:01.314Z,20.16
2019-05-19T17:56:34.032Z,20.10
2019-05-19T17:59:16.140Z,20.01
2019-05-19T18:01:39.389Z,19.93
2019-05-19T18:04:11.177Z,19.88
2019-05-19T18:06:42.805Z,19.74
2019-05-19T18:09:14.267Z,19.68
2019-05-19T18:11:45.807Z,19.59
2019-05-19T18:14:17.412Z,19.61
2019-05-19T18:16:49.240Z,19.57
2019-05-19T18:19:21.034Z,19.42
2019-05-19T18:21:55.944Z,19.26
2019-05-19T18:24:30.571Z,19.13
2019-05-19T18:27:02.087Z,19.08
2019-05-19T18:29:33.831Z,19.05
2019-05-19T18:32:06.106Z,19.05
2019-05-19T18:34:38.507Z,18.99
2019-05-19T18:37:13.497Z,18.94
2019-05-19T18:39:45.515Z,18.75
2019-05-19T18:42:20.107Z,18.78
2019-05-19T18:44:50.663Z,18.72
2019-05-19T18:47:22.635Z,18.71
2019-05-19T18:49:54.331Z,18.69
2019-05-19T18:52:26.023Z,18.55
2019-05-19T18:54:57.565Z,18.44
2019-05-19T18:57:30.745Z,18.45
2019-05-19T19:00:02.329Z,18.35
2019-05-19T19:02:33.872Z,18.15
2019-05-19T19:05:06.069Z,18.11
2019-05-19T19:07:52.378Z,18.07
2019-05-19T19:10:23.759Z,17.98
2019-05-19T19:12:54.513Z,17.86
2019-05-19T19:15:26.000Z,17.83
2019-05-19T19:17:58.272Z,17.78
2019-05-19T19:20:29.962Z,17.76
2019-05-19T19:23:01.601Z,17.75
2019-05-19T19:25:34.946Z,17.71
2019-05-19T19:28:06.707Z,17.60
2019-05-19T19:30:38.396Z,17.52
2019-05-19T19:33:10.186Z,17.44
2019-05-19T19:35:41.822Z,17.38
2019-05-19T19:38:13.452Z,17.23
2019-05-19T19:40:46.765Z,17.17
2019-05-19T19:43:18.320Z,17.17
2019-05-19T19:45:49.974Z,17.08
2019-05-19T19:48:21.601Z,16.88
2019-05-19T19:50:53.241Z,16.80
2019-05-19T19:53:25.266Z,16.76
2019-05-19T19:55:56.982Z,16.66
2019-05-19T19:58:28.889Z,16.64
2019-05-19T20:01:00.523Z,16.60
2019-05-19T20:03:32.077Z,16.49
2019-05-19T20:06:03.703Z,16.43
2019-05-19T20:08:35.466Z,16.38
2019-05-19T20:11:07.307Z,16.13
2019-05-19T20:13:38.886Z,15.98
2019-05-19T20:16:10.706Z,15.86
2019-05-19T20:18:42.457Z,15.73
2019-05-19T20:21:13.976Z,15.69
2019-05-19T20:23:45.906Z,15.72
2019-05-19T20:26:17.567Z,15.52
2019-05-19T20:28:49.113Z,15.51
2019-05-19T20:31:20.812Z,15.47
2019-05-19T20:33:52.440Z,15.38
2019-05-19T20:36:24.306Z,15.33
2019-05-19T20:38:55.979Z,15.18
2019-05-19T20:41:27.770Z,15.23
2019-05-19T20:43:59.470Z,15.06
2019-05-19T20:46:31.251Z,15.10
2019-05-19T20:49:02.980Z,15.07
2019-05-19T20:51:34.696Z,14.93
2019-05-19T20:54:06.507Z,14.89
2019-05-19T20:56:38.202Z,14.74
2019-05-19T20:59:09.810Z,14.66
2019-05-19T21:01:44.902Z,14.58
2019-05-19T21:04:15.468Z,14.56
2019-05-19T21:06:45.911Z,14.41
2019-05-19T21:09:17.255Z,14.35
2019-05-19T21:11:51.245Z,14.33
2019-05-19T21:14:23.222Z,14.27
2019-05-19T21:16:54.902Z,14.18
2019-05-19T21:19:26.439Z,14.13
2019-05-19T21:21:58.211Z,14.06
2019-05-19T21:24:29.751Z,14.05
2019-05-19T21:27:01.310Z,14.01
2019-05-19T21:29:32.884Z,13.92
2019-05-19T21:32:04.631Z,13.82
2019-05-19T21:34:36.548Z,13.77
2019-05-19T21:37:08.163Z,13.77
2019-05-19T21:39:39.882Z,13.70
2019-05-19T21:42:11.583Z,13.71
2019-05-19T21:44:43.197Z,13.70
2019-05-19T21:47:14.975Z,13.64
2019-05-19T21:49:46.618Z,13.61
2019-05-19T21:52:18.520Z,13.57
2019-05-19T21:54:50.173Z,13.56
2019-05-19T21:57:21.769Z,13.52
2019-05-19T21:59:53.744Z,13.45
2019-05-19T22:02:25.579Z,13.40
2019-05-19T22:04:57.171Z,13.31
2019-05-19T22:07:50.865Z,13.18
2019-05-19T22:10:23.533Z,13.21
2019-05-19T22:12:55.232Z,13.16
2019-05-19T22:15:26.956Z,13.09
2019-05-19T22:17:58.585Z,13.03
2019-05-19T22:20:30.174Z,13.02
2019-05-19T22:23:01.687Z,13.02
2019-05-19T22:25:33.476Z,13.01
2019-05-19T22:28:05.205Z,12.96
